sensor_id;sensor_type;location;lat;lon;timestamp;temperature;humidity
54168;DHT22;68429;50.958;3.592;2024-01-16T00:01:06;0.30;99.90
54168;DHT22;68429;50.958;3.592;2024-01-16T00:03:32;0.10;99.90
54168;DHT22;68429;50.958;3.592;2024-01-16T00:05:57;0.00;99.90
54168;DHT22;68429;50.958;3.592;2024-01-16T00:08:24;0.20;99.90
54168;DHT22;68429;50.958;3.592;2024-01-16T00:10:50;0.00;99.90
54168;DHT22;68429;50.958;3.592;2024-01-16T00:13:16;-0.10;99.90
54168;DHT22;68429;50.958;3.592;2024-01-16T00:15:43;-0.10;99.90
54168;DHT22;68429;50.958;3.592;2024-01-16T00:18:08;0.00;99.90
54168;DHT22;68429;50.958;3.592;2024-01-16T00:20:34;0.00;99.90
54168;DHT22;68429;50.958;3.592;2024-01-16T00:23:00;-0.10;99.90
54168;DHT22;68429;50.958;3.592;2024-01-16T00:25:26;-0.10;99.90
54168;DHT22;68429;50.958;3.592;2024-01-16T00:27:51;0.00;99.90
54168;DHT22;68429;50.958;3.592;2024-01-16T00:30:18;0.00;99.90
54168;DHT22;68429;50.958;3.592;2024-01-16T00:32:43;-0.20;99.90
54168;DHT22;68429;50.958;3.592;2024-01-16T00:35:09;-0.30;99.90
54168;DHT22;68429;50.958;3.592;2024-01-16T00:37:38;-0.20;99.90
54168;DHT22;68429;50.958;3.592;2024-01-16T00:40:04;-0.20;99.90
54168;DHT22;68429;50.958;3.592;2024-01-16T00:42:31;-0.20;99.90
54168;DHT22;68429;50.958;3.592;2024-01-16T00:44:57;-0.30;99.90
54168;DHT22;68429;50.958;3.592;2024-01-16T00:47:23;-0.10;99.90
54168;DHT22;68429;50.958;3.592;2024-01-16T00:49:50;-0.30;99.90
54168;DHT22;68429;50.958;3.592;2024-01-16T00:52:15;-0.30;99.90
54168;DHT22;68429;50.958;3.592;2024-01-16T00:54:42;-0.30;99.90
54168;DHT22;68429;50.958;3.592;2024-01-16T00:57:08;-0.30;99.90
54168;DHT22;68429;50.958;3.592;2024-01-16T00:59:34;-0.40;99.90
54168;DHT22;68429;50.958;3.592;2024-01-16T01:01:59;-0.40;99.90
54168;DHT22;68429;50.958;3.592;2024-01-16T01:04:25;-0.30;99.90
54168;DHT22;68429;50.958;3.592;2024-01-16T01:06:51;-0.40;99.90
54168;DHT22;68429;50.958;3.592;2024-01-16T01:09:16;-0.20;99.90
54168;DHT22;68429;50.958;3.592;2024-01-16T01:11:42;-0.50;99.90
54168;DHT22;68429;50.958;3.592;2024-01-16T01:14:08;-0.40;99.90
54168;DHT22;68429;50.958;3.592;2024-01-16T01:16:34;-0.30;99.90
54168;DHT22;68429;50.958;3.592;2024-01-16T01:18:59;-0.20;99.90
54168;DHT22;68429;50.958;3.592;2024-01-16T01:21:25;-0.30;99.90
54168;DHT22;68429;50.958;3.592;2024-01-16T01:23:51;-0.30;99.90
54168;DHT22;68429;50.958;3.592;2024-01-16T01:26:16;-0.10;99.90
54168;DHT22;68429;50.958;3.592;2024-01-16T01:28:45;-0.20;99.90
54168;DHT22;68429;50.958;3.592;2024-01-16T01:31:11;-0.20;99.90
54168;DHT22;68429;50.958;3.592;2024-01-16T01:33:37;-0.20;99.90
54168;DHT22;68429;50.958;3.592;2024-01-16T01:36:03;-0.30;99.90
54168;DHT22;68429;50.958;3.592;2024-01-16T01:38:29;-0.20;99.90
54168;DHT22;68429;50.958;3.592;2024-01-16T01:40:55;-0.20;99.90
54168;DHT22;68429;50.958;3.592;2024-01-16T01:43:22;-0.20;99.90
54168;DHT22;68429;50.958;3.592;2024-01-16T01:46:10;-0.10;99.90
54168;DHT22;68429;50.958;3.592;2024-01-16T01:48:41;-0.10;99.90
54168;DHT22;68429;50.958;3.592;2024-01-16T01:51:14;-0.10;99.90
54168;DHT22;68429;50.958;3.592;2024-01-16T01:53:42;-0.20;99.90
54168;DHT22;68429;50.958;3.592;2024-01-16T01:56:11;-0.20;99.90
54168;DHT22;68429;50.958;3.592;2024-01-16T01:58:37;-0.20;99.90
54168;DHT22;68429;50.958;3.592;2024-01-16T02:01:04;-0.30;99.90
54168;DHT22;68429;50.958;3.592;2024-01-16T02:03:35;-0.30;99.90
54168;DHT22;68429;50.958;3.592;2024-01-16T02:06:05;-0.30;99.90
54168;DHT22;68429;50.958;3.592;2024-01-16T02:08:30;-0.20;99.90
54168;DHT22;68429;50.958;3.592;2024-01-16T02:10:57;-0.30;99.90
54168;DHT22;68429;50.958;3.592;2024-01-16T02:13:23;-0.10;99.90
54168;DHT22;68429;50.958;3.592;2024-01-16T02:15:49;-0.40;99.90
54168;DHT22;68429;50.958;3.592;2024-01-16T02:18:16;-0.40;99.90
54168;DHT22;68429;50.958;3.592;2024-01-16T02:20:42;-0.40;99.90
54168;DHT22;68429;50.958;3.592;2024-01-16T02:23:09;-0.30;99.90
54168;DHT22;68429;50.958;3.592;2024-01-16T02:25:35;-0.30;99.90
54168;DHT22;68429;50.958;3.592;2024-01-16T02:28:02;-0.30;99.90
54168;DHT22;68429;50.958;3.592;2024-01-16T02:30:28;-0.20;99.90
54168;DHT22;68429;50.958;3.592;2024-01-16T02:32:54;-0.30;99.90
54168;DHT22;68429;50.958;3.592;2024-01-16T02:35:19;-0.40;99.90
54168;DHT22;68429;50.958;3.592;2024-01-16T02:37:45;-0.50;99.90
54168;DHT22;68429;50.958;3.592;2024-01-16T02:40:11;-0.50;99.90
54168;DHT22;68429;50.958;3.592;2024-01-16T02:42:37;-0.40;99.90
54168;DHT22;68429;50.958;3.592;2024-01-16T02:45:04;-0.30;99.90
54168;DHT22;68429;50.958;3.592;2024-01-16T02:47:30;-0.40;99.90
54168;DHT22;68429;50.958;3.592;2024-01-16T02:49:55;-0.50;99.90
54168;DHT22;68429;50.958;3.592;2024-01-16T02:52:21;-0.50;99.90
54168;DHT22;68429;50.958;3.592;2024-01-16T02:54:47;-0.40;99.90
54168;DHT22;68429;50.958;3.592;2024-01-16T02:57:12;-0.30;99.90
54168;DHT22;68429;50.958;3.592;2024-01-16T02:59:38;-0.40;99.90
54168;DHT22;68429;50.958;3.592;2024-01-16T03:02:04;-0.40;99.90
54168;DHT22;68429;50.958;3.592;2024-01-16T03:04:29;-0.30;99.90
54168;DHT22;68429;50.958;3.592;2024-01-16T03:06:55;-0.20;99.90
54168;DHT22;68429;50.958;3.592;2024-01-16T03:09:21;-0.10;99.90
54168;DHT22;68429;50.958;3.592;2024-01-16T03:11:47;-0.10;99.90
54168;DHT22;68429;50.958;3.592;2024-01-16T03:14:13;-0.30;99.90
54168;DHT22;68429;50.958;3.592;2024-01-16T03:16:39;-0.40;99.90
54168;DHT22;68429;50.958;3.592;2024-01-16T03:19:05;-0.40;99.90
54168;DHT22;68429;50.958;3.592;2024-01-16T03:21:31;-0.40;99.90
54168;DHT22;68429;50.958;3.592;2024-01-16T03:23:56;-0.30;99.90
54168;DHT22;68429;50.958;3.592;2024-01-16T03:26:22;-0.30;99.90
54168;DHT22;68429;50.958;3.592;2024-01-16T03:28:47;-0.30;99.90
54168;DHT22;68429;50.958;3.592;2024-01-16T03:31:13;-0.30;99.90
54168;DHT22;68429;50.958;3.592;2024-01-16T03:33:39;-0.20;99.90
54168;DHT22;68429;50.958;3.592;2024-01-16T03:36:08;0.00;99.90
54168;DHT22;68429;50.958;3.592;2024-01-16T03:38:35;-0.10;99.90
54168;DHT22;68429;50.958;3.592;2024-01-16T03:41:02;-0.10;99.90
54168;DHT22;68429;50.958;3.592;2024-01-16T03:43:29;-0.10;99.90
54168;DHT22;68429;50.958;3.592;2024-01-16T03:45:58;-0.20;99.90
54168;DHT22;68429;50.958;3.592;2024-01-16T03:48:23;-0.30;99.90
54168;DHT22;68429;50.958;3.592;2024-01-16T03:50:49;-0.30;99.90
54168;DHT22;68429;50.958;3.592;2024-01-16T03:53:15;-0.30;99.90
54168;DHT22;68429;50.958;3.592;2024-01-16T03:55:40;-0.30;99.90
54168;DHT22;68429;50.958;3.592;2024-01-16T03:58:06;-0.40;99.90
54168;DHT22;68429;50.958;3.592;2024-01-16T04:00:32;-0.40;99.90
54168;DHT22;68429;50.958;3.592;2024-01-16T04:02:57;-0.40;99.90
54168;DHT22;68429;50.958;3.592;2024-01-16T04:05:23;-0.30;99.90
54168;DHT22;68429;50.958;3.592;2024-01-16T04:07:49;-0.30;99.90
54168;DHT22;68429;50.958;3.592;2024-01-16T04:10:14;-0.10;99.90
54168;DHT22;68429;50.958;3.592;2024-01-16T04:12:40;-0.30;99.90
54168;DHT22;68429;50.958;3.592;2024-01-16T04:15:06;-0.20;99.90
54168;DHT22;68429;50.958;3.592;2024-01-16T04:17:32;-0.30;99.90
54168;DHT22;68429;50.958;3.592;2024-01-16T04:19:57;-0.40;99.90
54168;DHT22;68429;50.958;3.592;2024-01-16T04:22:23;-0.20;99.90
54168;DHT22;68429;50.958;3.592;2024-01-16T04:24:49;-0.60;99.90
54168;DHT22;68429;50.958;3.592;2024-01-16T04:27:14;-0.50;99.90
54168;DHT22;68429;50.958;3.592;2024-01-16T04:29:40;-0.50;99.90
54168;DHT22;68429;50.958;3.592;2024-01-16T04:32:06;-0.40;99.90
54168;DHT22;68429;50.958;3.592;2024-01-16T04:34:31;-0.50;99.90
54168;DHT22;68429;50.958;3.592;2024-01-16T04:36:57;-0.60;99.90
54168;DHT22;68429;50.958;3.592;2024-01-16T04:39:22;-0.60;99.90
54168;DHT22;68429;50.958;3.592;2024-01-16T04:41:49;-0.50;99.90
54168;DHT22;68429;50.958;3.592;2024-01-16T04:44:15;-0.60;99.90
54168;DHT22;68429;50.958;3.592;2024-01-16T04:46:40;-0.60;99.90
54168;DHT22;68429;50.958;3.592;2024-01-16T04:49:06;-0.50;99.90
54168;DHT22;68429;50.958;3.592;2024-01-16T04:51:32;-0.50;99.90
54168;DHT22;68429;50.958;3.592;2024-01-16T04:53:57;-0.60;99.90
54168;DHT22;68429;50.958;3.592;2024-01-16T04:56:23;-0.60;99.90
54168;DHT22;68429;50.958;3.592;2024-01-16T04:58:49;-0.60;99.90
54168;DHT22;68429;50.958;3.592;2024-01-16T05:01:14;-0.70;99.90
54168;DHT22;68429;50.958;3.592;2024-01-16T05:03:40;-0.60;99.90
54168;DHT22;68429;50.958;3.592;2024-01-16T05:06:12;-0.60;99.90
54168;DHT22;68429;50.958;3.592;2024-01-16T05:08:39;-0.50;99.90
54168;DHT22;68429;50.958;3.592;2024-01-16T05:11:04;-0.60;99.90
54168;DHT22;68429;50.958;3.592;2024-01-16T05:13:30;-0.60;99.90
54168;DHT22;68429;50.958;3.592;2024-01-16T05:15:56;-0.60;99.90
54168;DHT22;68429;50.958;3.592;2024-01-16T05:18:21;-0.60;99.90
54168;DHT22;68429;50.958;3.592;2024-01-16T05:20:47;-0.30;99.90
54168;DHT22;68429;50.958;3.592;2024-01-16T05:23:13;-0.40;99.90
54168;DHT22;68429;50.958;3.592;2024-01-16T05:25:38;-0.60;99.90
54168;DHT22;68429;50.958;3.592;2024-01-16T05:28:04;-0.60;99.90
54168;DHT22;68429;50.958;3.592;2024-01-16T05:30:31;-0.60;99.90
54168;DHT22;68429;50.958;3.592;2024-01-16T05:32:58;-0.40;99.90
54168;DHT22;68429;50.958;3.592;2024-01-16T05:35:27;-0.30;99.90
54168;DHT22;68429;50.958;3.592;2024-01-16T05:37:53;-0.50;99.90
54168;DHT22;68429;50.958;3.592;2024-01-16T05:40:19;-0.60;99.90
54168;DHT22;68429;50.958;3.592;2024-01-16T05:42:45;-0.50;99.90
54168;DHT22;68429;50.958;3.592;2024-01-16T05:45:10;-0.70;99.90
54168;DHT22;68429;50.958;3.592;2024-01-16T05:47:36;-0.30;99.90
54168;DHT22;68429;50.958;3.592;2024-01-16T05:50:02;-0.10;99.90
54168;DHT22;68429;50.958;3.592;2024-01-16T05:52:28;0.00;99.90
54168;DHT22;68429;50.958;3.592;2024-01-16T05:54:54;0.10;99.90
54168;DHT22;68429;50.958;3.592;2024-01-16T05:57:23;0.00;99.90
54168;DHT22;68429;50.958;3.592;2024-01-16T05:59:48;0.00;99.90
54168;DHT22;68429;50.958;3.592;2024-01-16T06:02:14;0.20;99.90
54168;DHT22;68429;50.958;3.592;2024-01-16T06:04:40;0.30;99.90
54168;DHT22;68429;50.958;3.592;2024-01-16T06:07:05;0.20;99.90
54168;DHT22;68429;50.958;3.592;2024-01-16T06:09:33;0.10;99.90
54168;DHT22;68429;50.958;3.592;2024-01-16T06:11:59;0.30;99.90
54168;DHT22;68429;50.958;3.592;2024-01-16T06:14:24;0.00;99.90
54168;DHT22;68429;50.958;3.592;2024-01-16T06:16:50;0.00;99.90
54168;DHT22;68429;50.958;3.592;2024-01-16T06:19:16;0.10;99.90
54168;DHT22;68429;50.958;3.592;2024-01-16T06:21:42;0.10;99.90
54168;DHT22;68429;50.958;3.592;2024-01-16T06:24:08;-0.10;99.90
54168;DHT22;68429;50.958;3.592;2024-01-16T06:26:33;-0.10;99.90
54168;DHT22;68429;50.958;3.592;2024-01-16T06:28:59;-0.20;99.90
54168;DHT22;68429;50.958;3.592;2024-01-16T06:31:25;-0.20;99.90
54168;DHT22;68429;50.958;3.592;2024-01-16T06:33:51;-0.20;99.90
54168;DHT22;68429;50.958;3.592;2024-01-16T06:36:17;-0.20;99.90
54168;DHT22;68429;50.958;3.592;2024-01-16T06:38:43;-0.50;99.90
54168;DHT22;68429;50.958;3.592;2024-01-16T06:41:08;-0.60;99.90
54168;DHT22;68429;50.958;3.592;2024-01-16T06:43:34;-0.50;99.90
54168;DHT22;68429;50.958;3.592;2024-01-16T06:46:00;-0.70;99.90
54168;DHT22;68429;50.958;3.592;2024-01-16T06:48:26;-0.70;99.90
54168;DHT22;68429;50.958;3.592;2024-01-16T06:50:52;-0.70;99.90
54168;DHT22;68429;50.958;3.592;2024-01-16T06:53:17;-0.60;99.90
54168;DHT22;68429;50.958;3.592;2024-01-16T06:55:43;-0.50;99.90
54168;DHT22;68429;50.958;3.592;2024-01-16T06:58:08;-0.60;99.90
54168;DHT22;68429;50.958;3.592;2024-01-16T07:00:35;-0.70;99.90
54168;DHT22;68429;50.958;3.592;2024-01-16T07:03:01;-0.70;99.90
54168;DHT22;68429;50.958;3.592;2024-01-16T07:05:28;-0.70;99.90
54168;DHT22;68429;50.958;3.592;2024-01-16T07:07:55;-0.70;99.90
54168;DHT22;68429;50.958;3.592;2024-01-16T07:10:20;-0.40;99.90
54168;DHT22;68429;50.958;3.592;2024-01-16T07:12:47;-0.70;99.90
54168;DHT22;68429;50.958;3.592;2024-01-16T07:15:15;-0.80;99.90
54168;DHT22;68429;50.958;3.592;2024-01-16T07:17:41;-0.60;99.90
54168;DHT22;68429;50.958;3.592;2024-01-16T07:20:07;-0.70;99.90
54168;DHT22;68429;50.958;3.592;2024-01-16T07:22:33;-0.70;99.90
54168;DHT22;68429;50.958;3.592;2024-01-16T07:25:00;-0.70;99.90
54168;DHT22;68429;50.958;3.592;2024-01-16T07:27:25;-0.60;99.90
54168;DHT22;68429;50.958;3.592;2024-01-16T07:29:51;-0.70;99.90
54168;DHT22;68429;50.958;3.592;2024-01-16T07:32:17;-0.60;99.90
54168;DHT22;68429;50.958;3.592;2024-01-16T07:34:42;-0.60;99.90
54168;DHT22;68429;50.958;3.592;2024-01-16T07:37:08;-0.70;99.90
54168;DHT22;68429;50.958;3.592;2024-01-16T07:39:34;-0.60;99.90
54168;DHT22;68429;50.958;3.592;2024-01-16T07:42:00;-0.60;99.90
54168;DHT22;68429;50.958;3.592;2024-01-16T07:44:25;-0.60;99.90
54168;DHT22;68429;50.958;3.592;2024-01-16T07:46:51;-0.30;99.90
54168;DHT22;68429;50.958;3.592;2024-01-16T07:49:17;-0.30;99.90
54168;DHT22;68429;50.958;3.592;2024-01-16T07:51:43;-0.40;99.90
54168;DHT22;68429;50.958;3.592;2024-01-16T07:54:09;-0.40;99.90
54168;DHT22;68429;50.958;3.592;2024-01-16T07:56:36;-0.40;99.90
54168;DHT22;68429;50.958;3.592;2024-01-16T07:59:03;-0.40;99.90
54168;DHT22;68429;50.958;3.592;2024-01-16T08:01:28;-0.40;99.90
54168;DHT22;68429;50.958;3.592;2024-01-16T08:03:55;-0.20;99.90
54168;DHT22;68429;50.958;3.592;2024-01-16T08:06:21;-0.20;99.90
54168;DHT22;68429;50.958;3.592;2024-01-16T08:08:47;-0.10;99.90
54168;DHT22;68429;50.958;3.592;2024-01-16T08:11:14;-0.20;99.90
54168;DHT22;68429;50.958;3.592;2024-01-16T08:13:40;-0.10;99.90
54168;DHT22;68429;50.958;3.592;2024-01-16T08:16:05;-0.10;99.90
54168;DHT22;68429;50.958;3.592;2024-01-16T08:18:31;-0.20;99.90
54168;DHT22;68429;50.958;3.592;2024-01-16T08:20:57;0.00;99.90
54168;DHT22;68429;50.958;3.592;2024-01-16T08:23:23;0.10;99.90
54168;DHT22;68429;50.958;3.592;2024-01-16T08:25:49;0.00;99.90
54168;DHT22;68429;50.958;3.592;2024-01-16T08:28:19;0.10;99.90
54168;DHT22;68429;50.958;3.592;2024-01-16T08:30:45;0.10;99.90
54168;DHT22;68429;50.958;3.592;2024-01-16T08:33:12;0.10;99.90
54168;DHT22;68429;50.958;3.592;2024-01-16T08:35:38;0.10;99.90
54168;DHT22;68429;50.958;3.592;2024-01-16T08:38:04;0.10;99.90
54168;DHT22;68429;50.958;3.592;2024-01-16T08:40:30;0.00;99.90
54168;DHT22;68429;50.958;3.592;2024-01-16T08:42:56;0.00;99.90
54168;DHT22;68429;50.958;3.592;2024-01-16T08:45:22;0.30;99.90
54168;DHT22;68429;50.958;3.592;2024-01-16T08:47:47;0.20;99.90
54168;DHT22;68429;50.958;3.592;2024-01-16T08:50:13;0.20;99.90
54168;DHT22;68429;50.958;3.592;2024-01-16T08:52:40;0.10;99.90
54168;DHT22;68429;50.958;3.592;2024-01-16T08:55:05;0.10;99.90
54168;DHT22;68429;50.958;3.592;2024-01-16T08:57:31;0.20;99.90
54168;DHT22;68429;50.958;3.592;2024-01-16T08:59:57;0.30;99.90
54168;DHT22;68429;50.958;3.592;2024-01-16T09:02:23;0.40;99.90
54168;DHT22;68429;50.958;3.592;2024-01-16T09:04:49;0.70;99.90
54168;DHT22;68429;50.958;3.592;2024-01-16T09:07:16;0.50;99.90
54168;DHT22;68429;50.958;3.592;2024-01-16T09:09:42;0.50;99.90
54168;DHT22;68429;50.958;3.592;2024-01-16T09:12:11;0.60;99.90
54168;DHT22;68429;50.958;3.592;2024-01-16T09:14:37;0.80;99.90
54168;DHT22;68429;50.958;3.592;2024-01-16T09:17:03;1.00;99.90
54168;DHT22;68429;50.958;3.592;2024-01-16T09:19:29;0.70;99.90
54168;DHT22;68429;50.958;3.592;2024-01-16T09:21:55;0.60;99.90
54168;DHT22;68429;50.958;3.592;2024-01-16T09:24:21;0.60;99.90
54168;DHT22;68429;50.958;3.592;2024-01-16T09:26:47;0.60;99.90
54168;DHT22;68429;50.958;3.592;2024-01-16T09:29:13;0.70;99.90
54168;DHT22;68429;50.958;3.592;2024-01-16T09:31:40;1.00;99.90
54168;DHT22;68429;50.958;3.592;2024-01-16T09:34:06;1.10;99.90
54168;DHT22;68429;50.958;3.592;2024-01-16T09:36:32;1.80;99.90
54168;DHT22;68429;50.958;3.592;2024-01-16T09:38:57;2.80;99.90
54168;DHT22;68429;50.958;3.592;2024-01-16T09:41:23;3.70;99.90
54168;DHT22;68429;50.958;3.592;2024-01-16T09:43:49;4.40;99.90
54168;DHT22;68429;50.958;3.592;2024-01-16T09:46:17;4.60;99.90
54168;DHT22;68429;50.958;3.592;2024-01-16T09:48:46;5.00;99.90
54168;DHT22;68429;50.958;3.592;2024-01-16T09:51:13;5.60;99.90
54168;DHT22;68429;50.958;3.592;2024-01-16T09:53:43;5.90;99.90
54168;DHT22;68429;50.958;3.592;2024-01-16T09:56:16;7.20;99.90
54168;DHT22;68429;50.958;3.592;2024-01-16T09:58:43;7.40;99.10
54168;DHT22;68429;50.958;3.592;2024-01-16T10:01:11;6.00;99.90
54168;DHT22;68429;50.958;3.592;2024-01-16T10:03:38;6.10;99.90
54168;DHT22;68429;50.958;3.592;2024-01-16T10:06:05;5.40;99.90
54168;DHT22;68429;50.958;3.592;2024-01-16T10:08:32;5.10;99.90
54168;DHT22;68429;50.958;3.592;2024-01-16T10:10:58;5.10;99.90
54168;DHT22;68429;50.958;3.592;2024-01-16T10:13:25;4.80;99.90
54168;DHT22;68429;50.958;3.592;2024-01-16T10:15:51;5.70;99.90
54168;DHT22;68429;50.958;3.592;2024-01-16T10:18:26;6.50;99.90
54168;DHT22;68429;50.958;3.592;2024-01-16T10:20:52;7.80;99.40
54168;DHT22;68429;50.958;3.592;2024-01-16T10:23:31;8.70;97.80
54168;DHT22;68429;50.958;3.592;2024-01-16T10:26:09;7.80;98.00
54168;DHT22;68429;50.958;3.592;2024-01-16T10:28:40;7.70;98.10
54168;DHT22;68429;50.958;3.592;2024-01-16T10:31:07;9.00;97.50
54168;DHT22;68429;50.958;3.592;2024-01-16T10:33:34;9.30;95.50
54168;DHT22;68429;50.958;3.592;2024-01-16T10:36:13;9.30;95.90
54168;DHT22;68429;50.958;3.592;2024-01-16T10:38:41;8.90;95.60
54168;DHT22;68429;50.958;3.592;2024-01-16T10:41:17;8.00;97.10
54168;DHT22;68429;50.958;3.592;2024-01-16T10:43:44;7.70;97.60
54168;DHT22;68429;50.958;3.592;2024-01-16T10:46:17;7.80;97.30
54168;DHT22;68429;50.958;3.592;2024-01-16T10:48:44;8.10;96.90
54168;DHT22;68429;50.958;3.592;2024-01-16T10:51:13;7.80;96.80
54168;DHT22;68429;50.958;3.592;2024-01-16T10:53:42;6.90;97.90
54168;DHT22;68429;50.958;3.592;2024-01-16T10:56:17;7.40;98.40
54168;DHT22;68429;50.958;3.592;2024-01-16T10:58:45;8.30;97.00
54168;DHT22;68429;50.958;3.592;2024-01-16T11:01:15;8.70;96.20
54168;DHT22;68429;50.958;3.592;2024-01-16T11:03:48;8.80;96.20
54168;DHT22;68429;50.958;3.592;2024-01-16T11:06:16;9.20;95.20
54168;DHT22;68429;50.958;3.592;2024-01-16T11:08:42;8.90;95.90
54168;DHT22;68429;50.958;3.592;2024-01-16T11:11:08;8.10;96.20
54168;DHT22;68429;50.958;3.592;2024-01-16T11:13:36;7.60;97.30
54168;DHT22;68429;50.958;3.592;2024-01-16T11:16:05;6.90;97.80
54168;DHT22;68429;50.958;3.592;2024-01-16T11:18:33;5.50;99.90
54168;DHT22;68429;50.958;3.592;2024-01-16T11:21:01;4.90;99.90
54168;DHT22;68429;50.958;3.592;2024-01-16T11:23:28;4.40;99.90
54168;DHT22;68429;50.958;3.592;2024-01-16T11:25:53;3.90;99.90
54168;DHT22;68429;50.958;3.592;2024-01-16T11:28:19;3.60;99.90
54168;DHT22;68429;50.958;3.592;2024-01-16T11:30:45;3.40;99.90
54168;DHT22;68429;50.958;3.592;2024-01-16T11:33:46;3.40;99.90
54168;DHT22;68429;50.958;3.592;2024-01-16T11:36:50;3.10;99.90
54168;DHT22;68429;50.958;3.592;2024-01-16T11:39:23;3.00;99.90
54168;DHT22;68429;50.958;3.592;2024-01-16T11:41:54;2.90;99.90
54168;DHT22;68429;50.958;3.592;2024-01-16T11:44:41;3.00;99.90
54168;DHT22;68429;50.958;3.592;2024-01-16T11:47:08;3.10;99.90
54168;DHT22;68429;50.958;3.592;2024-01-16T11:49:37;3.00;99.90
54168;DHT22;68429;50.958;3.592;2024-01-16T11:52:03;3.00;99.90
54168;DHT22;68429;50.958;3.592;2024-01-16T11:54:29;3.00;99.90
54168;DHT22;68429;50.958;3.592;2024-01-16T12:02:29;3.10;99.90
54168;DHT22;68429;50.958;3.592;2024-01-16T12:04:55;3.20;99.90
54168;DHT22;68429;50.958;3.592;2024-01-16T12:07:29;3.00;99.90
54168;DHT22;68429;50.958;3.592;2024-01-16T12:09:59;3.00;99.90
54168;DHT22;68429;50.958;3.592;2024-01-16T12:12:26;3.20;99.90
54168;DHT22;68429;50.958;3.592;2024-01-16T12:14:52;3.20;99.90
54168;DHT22;68429;50.958;3.592;2024-01-16T12:17:19;3.30;99.90
54168;DHT22;68429;50.958;3.592;2024-01-16T12:19:45;3.20;99.90
54168;DHT22;68429;50.958;3.592;2024-01-16T12:22:15;3.20;99.90
54168;DHT22;68429;50.958;3.592;2024-01-16T12:24:42;3.30;99.90
54168;DHT22;68429;50.958;3.592;2024-01-16T12:27:08;3.50;99.90
54168;DHT22;68429;50.958;3.592;2024-01-16T12:29:34;3.50;99.90
54168;DHT22;68429;50.958;3.592;2024-01-16T12:32:13;3.70;99.90
54168;DHT22;68429;50.958;3.592;2024-01-16T12:34:48;3.60;99.90
54168;DHT22;68429;50.958;3.592;2024-01-16T12:37:14;3.50;99.90
54168;DHT22;68429;50.958;3.592;2024-01-16T12:39:41;3.60;99.90
54168;DHT22;68429;50.958;3.592;2024-01-16T12:42:10;3.80;99.90
54168;DHT22;68429;50.958;3.592;2024-01-16T12:44:37;3.90;99.90
54168;DHT22;68429;50.958;3.592;2024-01-16T12:47:03;4.00;99.90
54168;DHT22;68429;50.958;3.592;2024-01-16T12:49:29;4.00;99.90
54168;DHT22;68429;50.958;3.592;2024-01-16T12:52:14;4.00;99.90
54168;DHT22;68429;50.958;3.592;2024-01-16T12:54:40;4.00;99.90
54168;DHT22;68429;50.958;3.592;2024-01-16T12:57:05;4.10;99.90
54168;DHT22;68429;50.958;3.592;2024-01-16T12:59:31;4.20;99.90
54168;DHT22;68429;50.958;3.592;2024-01-16T13:01:57;4.80;99.90
54168;DHT22;68429;50.958;3.592;2024-01-16T13:04:23;5.50;99.90
54168;DHT22;68429;50.958;3.592;2024-01-16T13:06:49;6.90;99.30
54168;DHT22;68429;50.958;3.592;2024-01-16T13:09:15;8.50;96.50
54168;DHT22;68429;50.958;3.592;2024-01-16T13:11:51;9.30;95.10
54168;DHT22;68429;50.958;3.592;2024-01-16T13:14:19;9.30;94.80
54168;DHT22;68429;50.958;3.592;2024-01-16T13:16:46;9.80;94.30
54168;DHT22;68429;50.958;3.592;2024-01-16T13:19:16;10.40;93.30
54168;DHT22;68429;50.958;3.592;2024-01-16T13:21:42;11.20;92.50
54168;DHT22;68429;50.958;3.592;2024-01-16T13:24:07;11.70;91.10
54168;DHT22;68429;50.958;3.592;2024-01-16T13:26:33;11.30;91.20
54168;DHT22;68429;50.958;3.592;2024-01-16T13:29:00;11.30;91.20
54168;DHT22;68429;50.958;3.592;2024-01-16T13:31:26;10.90;90.90
54168;DHT22;68429;50.958;3.592;2024-01-16T13:33:51;9.90;92.00
54168;DHT22;68429;50.958;3.592;2024-01-16T13:36:17;9.60;92.40
54168;DHT22;68429;50.958;3.592;2024-01-16T13:38:43;10.10;92.40
54168;DHT22;68429;50.958;3.592;2024-01-16T13:41:08;9.70;91.70
54168;DHT22;68429;50.958;3.592;2024-01-16T13:43:34;8.60;93.00
54168;DHT22;68429;50.958;3.592;2024-01-16T13:45:59;8.20;94.00
54168;DHT22;68429;50.958;3.592;2024-01-16T13:48:25;8.60;93.30
54168;DHT22;68429;50.958;3.592;2024-01-16T13:50:51;9.10;93.50
54168;DHT22;68429;50.958;3.592;2024-01-16T13:53:16;9.80;92.30
54168;DHT22;68429;50.958;3.592;2024-01-16T13:55:42;9.80;91.80
54168;DHT22;68429;50.958;3.592;2024-01-16T13:58:08;8.90;92.90
54168;DHT22;68429;50.958;3.592;2024-01-16T14:00:34;9.10;92.80
54168;DHT22;68429;50.958;3.592;2024-01-16T14:03:00;9.60;92.50
54168;DHT22;68429;50.958;3.592;2024-01-16T14:05:28;10.10;91.90
54168;DHT22;68429;50.958;3.592;2024-01-16T14:07:54;10.10;91.90
54168;DHT22;68429;50.958;3.592;2024-01-16T14:10:21;10.10;91.30
54168;DHT22;68429;50.958;3.592;2024-01-16T14:12:49;9.90;92.10
54168;DHT22;68429;50.958;3.592;2024-01-16T14:15:20;10.50;91.30
54168;DHT22;68429;50.958;3.592;2024-01-16T14:17:52;9.90;90.70
54168;DHT22;68429;50.958;3.592;2024-01-16T14:20:19;10.10;91.80
54168;DHT22;68429;50.958;3.592;2024-01-16T14:22:50;10.30;91.20
54168;DHT22;68429;50.958;3.592;2024-01-16T14:25:16;9.70;91.50
54168;DHT22;68429;50.958;3.592;2024-01-16T14:27:47;8.90;92.30
54168;DHT22;68429;50.958;3.592;2024-01-16T14:30:14;9.30;92.70
54168;DHT22;68429;50.958;3.592;2024-01-16T14:32:44;9.00;92.10
54168;DHT22;68429;50.958;3.592;2024-01-16T14:35:13;8.90;92.00
54168;DHT22;68429;50.958;3.592;2024-01-16T14:37:39;8.40;92.70
54168;DHT22;68429;50.958;3.592;2024-01-16T14:40:06;8.80;92.50
54168;DHT22;68429;50.958;3.592;2024-01-16T14:42:40;8.80;92.40
54168;DHT22;68429;50.958;3.592;2024-01-16T14:45:07;9.30;92.10
54168;DHT22;68429;50.958;3.592;2024-01-16T14:47:33;9.50;92.00
54168;DHT22;68429;50.958;3.592;2024-01-16T14:49:59;9.20;91.90
54168;DHT22;68429;50.958;3.592;2024-01-16T14:52:25;9.00;92.00
54168;DHT22;68429;50.958;3.592;2024-01-16T14:54:50;9.40;92.10
54168;DHT22;68429;50.958;3.592;2024-01-16T14:57:18;9.40;92.10
54168;DHT22;68429;50.958;3.592;2024-01-16T14:59:43;8.90;92.20
54168;DHT22;68429;50.958;3.592;2024-01-16T15:02:10;8.70;92.20
54168;DHT22;68429;50.958;3.592;2024-01-16T15:04:43;8.00;92.70
54168;DHT22;68429;50.958;3.592;2024-01-16T15:07:09;7.00;92.90
54168;DHT22;68429;50.958;3.592;2024-01-16T15:09:35;6.20;94.60
54168;DHT22;68429;50.958;3.592;2024-01-16T15:12:06;5.90;94.80
54168;DHT22;68429;50.958;3.592;2024-01-16T15:14:32;5.30;95.70
54168;DHT22;68429;50.958;3.592;2024-01-16T15:16:58;5.20;95.30
54168;DHT22;68429;50.958;3.592;2024-01-16T15:19:24;5.20;95.80
54168;DHT22;68429;50.958;3.592;2024-01-16T15:21:49;5.00;95.80
54168;DHT22;68429;50.958;3.592;2024-01-16T15:24:16;4.80;96.10
54168;DHT22;68429;50.958;3.592;2024-01-16T15:26:47;4.60;96.40
54168;DHT22;68429;50.958;3.592;2024-01-16T15:29:12;4.40;96.70
54168;DHT22;68429;50.958;3.592;2024-01-16T15:31:38;4.20;97.20
54168;DHT22;68429;50.958;3.592;2024-01-16T15:34:04;3.90;97.60
54168;DHT22;68429;50.958;3.592;2024-01-16T15:36:29;3.70;98.20
54168;DHT22;68429;50.958;3.592;2024-01-16T15:38:55;3.60;98.60
54168;DHT22;68429;50.958;3.592;2024-01-16T15:41:21;3.50;98.70